sensor_id;sensor_type;location;lat;lon;timestamp;pressure;altitude;pressure_sealevel;temperature;humidity
83514;BME280;73447;53.262;10.424;2023-12-20T00:02:08;100948.06;;;4.38;91.46
83514;BME280;73447;53.262;10.424;2023-12-20T00:04:33;100944.38;;;4.39;91.91
83514;BME280;73447;53.262;10.424;2023-12-20T00:06:58;100946.41;;;4.37;91.44
83514;BME280;73447;53.262;10.424;2023-12-20T00:09:24;100957.97;;;4.44;91.79
83514;BME280;73447;53.262;10.424;2023-12-20T00:11:49;100957.16;;;4.51;91.15
83514;BME280;73447;53.262;10.424;2023-12-20T00:14:14;100959.63;;;4.45;90.70
83514;BME280;73447;53.262;10.424;2023-12-20T00:16:40;100953.44;;;4.45;91.68
83514;BME280;73447;53.262;10.424;2023-12-20T00:19:05;100946.31;;;4.24;91.73
83514;BME280;73447;53.262;10.424;2023-12-20T00:21:31;100954.03;;;4.05;92.41
83514;BME280;73447;53.262;10.424;2023-12-20T00:23:56;100956.16;;;4.17;92.08
83514;BME280;73447;53.262;10.424;2023-12-20T00:26:21;100954.41;;;4.37;91.11
83514;BME280;73447;53.262;10.424;2023-12-20T00:28:47;100951.63;;;4.11;92.22
83514;BME280;73447;53.262;10.424;2023-12-20T00:31:12;100954.16;;;4.25;91.87
83514;BME280;73447;53.262;10.424;2023-12-20T00:33:38;100944.59;;;4.09;91.41
83514;BME280;73447;53.262;10.424;2023-12-20T00:36:05;100946.03;;;4.12;91.88
83514;BME280;73447;53.262;10.424;2023-12-20T00:38:30;100950.28;;;4.00;91.53
83514;BME280;73447;53.262;10.424;2023-12-20T00:40:56;100947.03;;;4.04;91.42
83514;BME280;73447;53.262;10.424;2023-12-20T00:43:21;100941.84;;;3.96;91.54
83514;BME280;73447;53.262;10.424;2023-12-20T00:45:47;100936.88;;;3.93;91.69
83514;BME280;73447;53.262;10.424;2023-12-20T00:48:12;100941.03;;;3.96;92.22
83514;BME280;73447;53.262;10.424;2023-12-20T00:50:37;100934.59;;;3.90;91.58
83514;BME280;73447;53.262;10.424;2023-12-20T00:53:03;100941.63;;;3.69;91.82
83514;BME280;73447;53.262;10.424;2023-12-20T00:55:28;100938.91;;;3.63;92.02
83514;BME280;73447;53.262;10.424;2023-12-20T00:57:54;100936.91;;;3.71;92.25
83514;BME280;73447;53.262;10.424;2023-12-20T01:00:19;100935.13;;;3.79;91.96
83514;BME280;73447;53.262;10.424;2023-12-20T01:02:45;100934.50;;;3.77;91.78
83514;BME280;73447;53.262;10.424;2023-12-20T01:05:11;100931.47;;;3.58;92.20
83514;BME280;73447;53.262;10.424;2023-12-20T01:07:37;100933.13;;;3.59;92.23
83514;BME280;73447;53.262;10.424;2023-12-20T01:10:03;100939.28;;;3.60;92.39
83514;BME280;73447;53.262;10.424;2023-12-20T01:12:28;100935.28;;;3.70;92.04
83514;BME280;73447;53.262;10.424;2023-12-20T01:14:53;100930.69;;;3.64;92.20
83514;BME280;73447;53.262;10.424;2023-12-20T01:17:19;100930.81;;;3.78;91.67
83514;BME280;73447;53.262;10.424;2023-12-20T01:19:44;100938.69;;;3.86;91.67
83514;BME280;73447;53.262;10.424;2023-12-20T01:22:10;100938.34;;;3.96;92.40
83514;BME280;73447;53.262;10.424;2023-12-20T01:24:35;100930.84;;;4.13;90.92
83514;BME280;73447;53.262;10.424;2023-12-20T01:27:00;100922.50;;;3.94;90.83
83514;BME280;73447;53.262;10.424;2023-12-20T01:29:26;100927.19;;;3.92;91.15
83514;BME280;73447;53.262;10.424;2023-12-20T01:31:51;100924.16;;;3.95;90.87
83514;BME280;73447;53.262;10.424;2023-12-20T01:34:17;100913.59;;;3.87;91.42
83514;BME280;73447;53.262;10.424;2023-12-20T01:36:43;100912.88;;;4.00;91.22
83514;BME280;73447;53.262;10.424;2023-12-20T01:39:08;100910.00;;;4.01;90.65
83514;BME280;73447;53.262;10.424;2023-12-20T01:41:34;100910.41;;;3.98;90.63
83514;BME280;73447;53.262;10.424;2023-12-20T01:43:59;100911.59;;;3.89;90.75
83514;BME280;73447;53.262;10.424;2023-12-20T01:46:25;100906.25;;;3.89;91.00
83514;BME280;73447;53.262;10.424;2023-12-20T01:48:51;100910.81;;;4.02;90.09
83514;BME280;73447;53.262;10.424;2023-12-20T01:51:17;100907.88;;;3.90;90.36
83514;BME280;73447;53.262;10.424;2023-12-20T01:53:43;100904.63;;;3.95;91.02
83514;BME280;73447;53.262;10.424;2023-12-20T01:56:09;100905.66;;;3.65;90.90
83514;BME280;73447;53.262;10.424;2023-12-20T01:58:39;100900.31;;;3.65;90.86
83514;BME280;73447;53.262;10.424;2023-12-20T02:01:07;100902.00;;;3.73;90.90
83514;BME280;73447;53.262;10.424;2023-12-20T02:03:33;100900.22;;;3.52;91.06
83514;BME280;73447;53.262;10.424;2023-12-20T02:05:59;100890.84;;;3.63;91.28
83514;BME280;73447;53.262;10.424;2023-12-20T02:08:25;100887.72;;;3.59;91.00
83514;BME280;73447;53.262;10.424;2023-12-20T02:10:50;100884.88;;;3.61;90.73
83514;BME280;73447;53.262;10.424;2023-12-20T02:13:16;100878.44;;;3.55;90.91
83514;BME280;73447;53.262;10.424;2023-12-20T02:15:41;100874.16;;;3.32;91.45
83514;BME280;73447;53.262;10.424;2023-12-20T02:18:08;100876.06;;;3.39;92.01
83514;BME280;73447;53.262;10.424;2023-12-20T02:20:34;100869.41;;;3.56;90.98
83514;BME280;73447;53.262;10.424;2023-12-20T02:22:59;100866.44;;;3.44;91.26
83514;BME280;73447;53.262;10.424;2023-12-20T02:25:25;100869.31;;;3.43;91.12
83514;BME280;73447;53.262;10.424;2023-12-20T02:27:50;100868.31;;;3.44;91.10
83514;BME280;73447;53.262;10.424;2023-12-20T02:30:16;100873.44;;;3.45;91.00
83514;BME280;73447;53.262;10.424;2023-12-20T02:32:41;100876.81;;;3.32;91.07
83514;BME280;73447;53.262;10.424;2023-12-20T02:35:07;100867.53;;;3.28;91.11
83514;BME280;73447;53.262;10.424;2023-12-20T02:37:35;100870.50;;;3.40;91.47
83514;BME280;73447;53.262;10.424;2023-12-20T02:40:00;100865.50;;;3.52;91.72
83514;BME280;73447;53.262;10.424;2023-12-20T02:42:26;100869.44;;;3.34;91.70
83514;BME280;73447;53.262;10.424;2023-12-20T02:44:51;100874.38;;;3.59;90.91
83514;BME280;73447;53.262;10.424;2023-12-20T02:47:16;100870.72;;;3.39;91.00
83514;BME280;73447;53.262;10.424;2023-12-20T02:49:42;100866.06;;;3.47;90.85
83514;BME280;73447;53.262;10.424;2023-12-20T02:52:07;100853.63;;;3.61;90.13
83514;BME280;73447;53.262;10.424;2023-12-20T02:54:33;100855.50;;;3.61;89.71
83514;BME280;73447;53.262;10.424;2023-12-20T02:56:58;100855.72;;;3.38;90.60
83514;BME280;73447;53.262;10.424;2023-12-20T02:59:23;100852.28;;;3.44;90.40
83514;BME280;73447;53.262;10.424;2023-12-20T03:01:49;100847.13;;;3.42;90.22
83514;BME280;73447;53.262;10.424;2023-12-20T03:04:14;100858.72;;;3.56;90.06
83514;BME280;73447;53.262;10.424;2023-12-20T03:06:40;100858.34;;;3.59;90.03
83514;BME280;73447;53.262;10.424;2023-12-20T03:09:05;100849.63;;;3.44;89.87
83514;BME280;73447;53.262;10.424;2023-12-20T03:11:30;100851.31;;;3.30;90.72
83514;BME280;73447;53.262;10.424;2023-12-20T03:13:56;100844.03;;;3.39;90.40
83514;BME280;73447;53.262;10.424;2023-12-20T03:16:22;100845.28;;;3.71;89.70
83514;BME280;73447;53.262;10.424;2023-12-20T03:18:48;100847.19;;;3.49;89.98
83514;BME280;73447;53.262;10.424;2023-12-20T03:21:14;100836.56;;;3.56;89.96
83514;BME280;73447;53.262;10.424;2023-12-20T03:23:40;100826.69;;;3.56;89.71
83514;BME280;73447;53.262;10.424;2023-12-20T03:26:09;100824.56;;;3.45;89.97
83514;BME280;73447;53.262;10.424;2023-12-20T03:28:36;100827.34;;;3.37;90.17
83514;BME280;73447;53.262;10.424;2023-12-20T03:31:01;100818.06;;;3.54;89.86
83514;BME280;73447;53.262;10.424;2023-12-20T03:33:27;100806.38;;;3.27;89.97
83514;BME280;73447;53.262;10.424;2023-12-20T03:35:53;100803.75;;;3.33;89.92
83514;BME280;73447;53.262;10.424;2023-12-20T03:38:18;100799.56;;;3.24;89.94
83514;BME280;73447;53.262;10.424;2023-12-20T03:40:44;100809.94;;;3.12;90.09
83514;BME280;73447;53.262;10.424;2023-12-20T03:43:09;100800.88;;;3.07;91.06
83514;BME280;73447;53.262;10.424;2023-12-20T03:45:35;100795.28;;;3.30;90.51
83514;BME280;73447;53.262;10.424;2023-12-20T03:48:00;100792.59;;;3.30;90.35
83514;BME280;73447;53.262;10.424;2023-12-20T03:50:26;100801.28;;;3.32;90.18
83514;BME280;73447;53.262;10.424;2023-12-20T03:52:51;100800.19;;;3.55;89.49
83514;BME280;73447;53.262;10.424;2023-12-20T03:55:17;100795.22;;;3.51;89.58
83514;BME280;73447;53.262;10.424;2023-12-20T03:57:42;100797.41;;;3.41;89.49
83514;BME280;73447;53.262;10.424;2023-12-20T04:00:09;100794.56;;;3.43;89.23
83514;BME280;73447;53.262;10.424;2023-12-20T04:02:42;100797.13;;;3.58;88.56
83514;BME280;73447;53.262;10.424;2023-12-20T04:05:08;100792.28;;;3.75;88.45
83514;BME280;73447;53.262;10.424;2023-12-20T04:07:34;100795.88;;;3.60;88.51
83514;BME280;73447;53.262;10.424;2023-12-20T04:10:00;100789.16;;;3.64;88.30
83514;BME280;73447;53.262;10.424;2023-12-20T04:12:26;100789.47;;;3.48;89.15
83514;BME280;73447;53.262;10.424;2023-12-20T04:14:52;100779.00;;;3.53;89.00
83514;BME280;73447;53.262;10.424;2023-12-20T04:17:17;100778.28;;;3.66;88.12
83514;BME280;73447;53.262;10.424;2023-12-20T04:19:43;100777.19;;;3.60;88.59
83514;BME280;73447;53.262;10.424;2023-12-20T04:22:08;100777.47;;;3.65;88.59
83514;BME280;73447;53.262;10.424;2023-12-20T04:24:34;100768.38;;;3.60;88.72
83514;BME280;73447;53.262;10.424;2023-12-20T04:26:59;100758.44;;;3.88;87.89
83514;BME280;73447;53.262;10.424;2023-12-20T04:29:25;100762.34;;;3.86;87.58
83514;BME280;73447;53.262;10.424;2023-12-20T04:31:50;100757.56;;;3.75;88.20
83514;BME280;73447;53.262;10.424;2023-12-20T04:34:17;100755.53;;;3.83;87.52
83514;BME280;73447;53.262;10.424;2023-12-20T04:36:42;100754.13;;;3.81;88.00
83514;BME280;73447;53.262;10.424;2023-12-20T04:39:08;100763.56;;;3.83;87.64
83514;BME280;73447;53.262;10.424;2023-12-20T04:41:33;100760.09;;;3.89;87.26
83514;BME280;73447;53.262;10.424;2023-12-20T04:43:59;100748.00;;;4.00;87.05
83514;BME280;73447;53.262;10.424;2023-12-20T04:46:25;100747.78;;;3.95;86.88
83514;BME280;73447;53.262;10.424;2023-12-20T04:48:51;100748.84;;;4.01;86.95
83514;BME280;73447;53.262;10.424;2023-12-20T04:51:16;100742.22;;;3.90;87.38
83514;BME280;73447;53.262;10.424;2023-12-20T04:53:42;100736.09;;;3.96;86.99
83514;BME280;73447;53.262;10.424;2023-12-20T04:56:07;100727.91;;;4.04;86.77
83514;BME280;73447;53.262;10.424;2023-12-20T04:58:32;100731.38;;;4.05;86.58
83514;BME280;73447;53.262;10.424;2023-12-20T05:00:58;100730.34;;;3.99;87.26
83514;BME280;73447;53.262;10.424;2023-12-20T05:03:23;100727.06;;;3.97;87.36
83514;BME280;73447;53.262;10.424;2023-12-20T05:05:49;100723.81;;;4.15;86.48
83514;BME280;73447;53.262;10.424;2023-12-20T05:08:14;100724.88;;;4.21;86.30
83514;BME280;73447;53.262;10.424;2023-12-20T05:10:40;100730.38;;;4.06;86.85
83514;BME280;73447;53.262;10.424;2023-12-20T05:13:06;100731.34;;;3.92;87.83
83514;BME280;73447;53.262;10.424;2023-12-20T05:15:31;100726.06;;;4.12;87.20
83514;BME280;73447;53.262;10.424;2023-12-20T05:17:57;100720.53;;;4.20;86.04
83514;BME280;73447;53.262;10.424;2023-12-20T05:20:22;100719.28;;;4.09;86.34
83514;BME280;73447;53.262;10.424;2023-12-20T05:22:48;100717.66;;;4.15;87.32
83514;BME280;73447;53.262;10.424;2023-12-20T05:25:13;100724.63;;;4.09;87.25
83514;BME280;73447;53.262;10.424;2023-12-20T05:27:39;100725.88;;;4.13;86.66
83514;BME280;73447;53.262;10.424;2023-12-20T05:30:05;100712.31;;;4.15;87.06
83514;BME280;73447;53.262;10.424;2023-12-20T05:32:31;100724.66;;;4.16;87.06
83514;BME280;73447;53.262;10.424;2023-12-20T05:34:56;100720.94;;;4.17;87.61
83514;BME280;73447;53.262;10.424;2023-12-20T05:37:21;100716.41;;;4.17;88.07
83514;BME280;73447;53.262;10.424;2023-12-20T05:39:47;100723.81;;;4.15;87.81
83514;BME280;73447;53.262;10.424;2023-12-20T05:42:12;100723.38;;;4.12;87.94
83514;BME280;73447;53.262;10.424;2023-12-20T05:44:38;100725.25;;;4.18;87.78
83514;BME280;73447;53.262;10.424;2023-12-20T05:47:03;100728.72;;;4.12;88.05
83514;BME280;73447;53.262;10.424;2023-12-20T05:49:28;100724.19;;;4.05;88.19
83514;BME280;73447;53.262;10.424;2023-12-20T05:51:54;100720.94;;;4.17;88.23
83514;BME280;73447;53.262;10.424;2023-12-20T05:54:19;100732.63;;;4.02;89.01
83514;BME280;73447;53.262;10.424;2023-12-20T05:56:45;100724.22;;;4.19;88.37
83514;BME280;73447;53.262;10.424;2023-12-20T05:59:10;100724.41;;;4.17;88.31
83514;BME280;73447;53.262;10.424;2023-12-20T06:01:35;100716.84;;;4.21;87.86
83514;BME280;73447;53.262;10.424;2023-12-20T06:04:01;100713.53;;;4.25;87.98
83514;BME280;73447;53.262;10.424;2023-12-20T06:06:26;100713.16;;;4.35;87.37
83514;BME280;73447;53.262;10.424;2023-12-20T06:08:52;100704.09;;;4.23;86.85
83514;BME280;73447;53.262;10.424;2023-12-20T06:11:17;100710.88;;;4.32;86.22
83514;BME280;73447;53.262;10.424;2023-12-20T06:13:42;100707.38;;;4.25;86.95
83514;BME280;73447;53.262;10.424;2023-12-20T06:16:08;100701.03;;;4.26;86.71
83514;BME280;73447;53.262;10.424;2023-12-20T06:18:33;100695.50;;;4.41;88.73
83514;BME280;73447;53.262;10.424;2023-12-20T06:20:59;100695.06;;;4.31;86.71
83514;BME280;73447;53.262;10.424;2023-12-20T06:23:24;100689.31;;;4.40;85.99
83514;BME280;73447;53.262;10.424;2023-12-20T06:25:50;100685.63;;;4.41;85.93
83514;BME280;73447;53.262;10.424;2023-12-20T06:28:15;100688.88;;;4.30;86.61
83514;BME280;73447;53.262;10.424;2023-12-20T06:30:40;100685.00;;;4.39;86.40
83514;BME280;73447;53.262;10.424;2023-12-20T06:33:06;100680.50;;;4.73;88.12
83514;BME280;73447;53.262;10.424;2023-12-20T06:35:32;100681.91;;;4.82;85.02
83514;BME280;73447;53.262;10.424;2023-12-20T06:37:57;100678.63;;;4.40;86.23
83514;BME280;73447;53.262;10.424;2023-12-20T06:40:22;100677.78;;;4.33;86.34
83514;BME280;73447;53.262;10.424;2023-12-20T06:42:48;100678.00;;;4.38;86.15
83514;BME280;73447;53.262;10.424;2023-12-20T06:45:13;100671.44;;;4.41;85.20
83514;BME280;73447;53.262;10.424;2023-12-20T06:47:39;100673.28;;;4.47;85.38
83514;BME280;73447;53.262;10.424;2023-12-20T06:50:05;100678.81;;;4.45;85.45
83514;BME280;73447;53.262;10.424;2023-12-20T06:52:30;100665.88;;;4.42;85.52
83514;BME280;73447;53.262;10.424;2023-12-20T06:54:56;100669.78;;;4.53;85.49
83514;BME280;73447;53.262;10.424;2023-12-20T06:57:21;100664.03;;;4.36;86.44
83514;BME280;73447;53.262;10.424;2023-12-20T06:59:47;100658.06;;;4.48;85.95
83514;BME280;73447;53.262;10.424;2023-12-20T07:02:12;100651.69;;;4.42;85.71
83514;BME280;73447;53.262;10.424;2023-12-20T07:04:41;100664.22;;;4.28;87.09
83514;BME280;73447;53.262;10.424;2023-12-20T07:07:07;100652.28;;;4.37;85.86
83514;BME280;73447;53.262;10.424;2023-12-20T07:09:32;100653.53;;;4.41;86.12
83514;BME280;73447;53.262;10.424;2023-12-20T07:11:58;100649.19;;;4.40;86.29
83514;BME280;73447;53.262;10.424;2023-12-20T07:14:23;100646.13;;;4.50;85.49
83514;BME280;73447;53.262;10.424;2023-12-20T07:16:49;100645.50;;;4.41;85.89
83514;BME280;73447;53.262;10.424;2023-12-20T07:19:14;100640.34;;;4.26;86.12
83514;BME280;73447;53.262;10.424;2023-12-20T07:21:39;100636.25;;;4.37;86.52
83514;BME280;73447;53.262;10.424;2023-12-20T07:24:05;100638.50;;;4.27;86.31
83514;BME280;73447;53.262;10.424;2023-12-20T07:26:30;100642.84;;;4.48;85.99
83514;BME280;73447;53.262;10.424;2023-12-20T07:28:55;100650.44;;;4.38;85.77
83514;BME280;73447;53.262;10.424;2023-12-20T07:31:21;100646.53;;;4.40;86.65
83514;BME280;73447;53.262;10.424;2023-12-20T07:33:46;100653.13;;;4.58;85.97
83514;BME280;73447;53.262;10.424;2023-12-20T07:36:13;100648.81;;;4.57;85.71
83514;BME280;73447;53.262;10.424;2023-12-20T07:38:38;100641.38;;;4.65;85.00
83514;BME280;73447;53.262;10.424;2023-12-20T07:41:03;100646.94;;;4.57;85.61
83514;BME280;73447;53.262;10.424;2023-12-20T07:43:29;100653.13;;;4.51;86.18
83514;BME280;73447;53.262;10.424;2023-12-20T07:45:54;100655.81;;;4.44;86.04
83514;BME280;73447;53.262;10.424;2023-12-20T07:48:20;100644.06;;;4.45;86.49
83514;BME280;73447;53.262;10.424;2023-12-20T07:50:45;100642.03;;;4.48;85.77
83514;BME280;73447;53.262;10.424;2023-12-20T07:53:11;100639.75;;;4.44;85.84
83514;BME280;73447;53.262;10.424;2023-12-20T07:55:36;100644.91;;;4.39;86.39
83514;BME280;73447;53.262;10.424;2023-12-20T07:58:01;100644.25;;;4.37;86.32
83514;BME280;73447;53.262;10.424;2023-12-20T08:00:27;100634.59;;;4.36;86.83
83514;BME280;73447;53.262;10.424;2023-12-20T08:02:53;100641.59;;;4.37;85.71
83514;BME280;73447;53.262;10.424;2023-12-20T08:05:18;100628.84;;;4.53;85.81
83514;BME280;73447;53.262;10.424;2023-12-20T08:07:43;100629.06;;;4.58;85.29
83514;BME280;73447;53.262;10.424;2023-12-20T08:10:09;100634.22;;;4.53;85.66
83514;BME280;73447;53.262;10.424;2023-12-20T08:12:34;100625.97;;;4.61;85.13
83514;BME280;73447;53.262;10.424;2023-12-20T08:15:01;100621.84;;;4.58;86.08
83514;BME280;73447;53.262;10.424;2023-12-20T08:17:26;100614.84;;;4.64;86.09
83514;BME280;73447;53.262;10.424;2023-12-20T08:19:52;100619.38;;;4.57;87.07
83514;BME280;73447;53.262;10.424;2023-12-20T08:22:17;100622.88;;;4.37;87.73
83514;BME280;73447;53.262;10.424;2023-12-20T08:24:42;100620.63;;;4.61;87.20
83514;BME280;73447;53.262;10.424;2023-12-20T08:27:08;100607.47;;;4.39;87.58
83514;BME280;73447;53.262;10.424;2023-12-20T08:29:34;100616.50;;;4.45;88.66
83514;BME280;73447;53.262;10.424;2023-12-20T08:32:00;100619.38;;;4.43;87.65
83514;BME280;73447;53.262;10.424;2023-12-20T08:34:25;100617.53;;;4.51;87.26
83514;BME280;73447;53.262;10.424;2023-12-20T08:36:51;100601.28;;;4.59;87.68
83514;BME280;73447;53.262;10.424;2023-12-20T08:39:17;100595.09;;;4.58;87.18
83514;BME280;73447;53.262;10.424;2023-12-20T08:41:42;100591.81;;;4.63;87.45
83514;BME280;73447;53.262;10.424;2023-12-20T08:44:09;100574.13;;;4.62;86.57
83514;BME280;73447;53.262;10.424;2023-12-20T08:46:34;100570.81;;;4.60;87.34
83514;BME280;73447;53.262;10.424;2023-12-20T08:49:01;100570.41;;;4.63;86.87
83514;BME280;73447;53.262;10.424;2023-12-20T08:51:26;100562.97;;;4.78;86.25
83514;BME280;73447;53.262;10.424;2023-12-20T08:53:52;100566.88;;;4.82;85.67
83514;BME280;73447;53.262;10.424;2023-12-20T08:56:18;100565.44;;;4.87;84.65
83514;BME280;73447;53.262;10.424;2023-12-20T08:58:44;100561.75;;;4.74;85.40
83514;BME280;73447;53.262;10.424;2023-12-20T09:01:10;100555.97;;;4.71;85.82
83514;BME280;73447;53.262;10.424;2023-12-20T09:03:35;100545.22;;;4.91;84.63
83514;BME280;73447;53.262;10.424;2023-12-20T09:06:01;100555.16;;;4.83;85.44
83514;BME280;73447;53.262;10.424;2023-12-20T09:08:26;100548.50;;;5.06;84.49
83514;BME280;73447;53.262;10.424;2023-12-20T09:10:51;100539.78;;;5.17;84.23
83514;BME280;73447;53.262;10.424;2023-12-20T09:13:17;100545.56;;;5.14;83.65
83514;BME280;73447;53.262;10.424;2023-12-20T09:15:42;100538.16;;;5.16;83.52
83514;BME280;73447;53.262;10.424;2023-12-20T09:18:08;100551.81;;;5.01;85.05
83514;BME280;73447;53.262;10.424;2023-12-20T09:20:34;100543.19;;;4.93;85.49
83514;BME280;73447;53.262;10.424;2023-12-20T09:22:59;100541.13;;;4.88;86.23
83514;BME280;73447;53.262;10.424;2023-12-20T09:25:24;100539.50;;;4.80;86.54
83514;BME280;73447;53.262;10.424;2023-12-20T09:27:51;100547.53;;;4.80;87.92
83514;BME280;73447;53.262;10.424;2023-12-20T09:30:18;100540.75;;;4.78;87.61
83514;BME280;73447;53.262;10.424;2023-12-20T09:32:43;100545.06;;;4.72;87.92
83514;BME280;73447;53.262;10.424;2023-12-20T09:35:09;100545.28;;;4.64;88.95
83514;BME280;73447;53.262;10.424;2023-12-20T09:37:35;100540.81;;;4.58;89.91
83514;BME280;73447;53.262;10.424;2023-12-20T09:40:01;100536.44;;;4.70;90.00
83514;BME280;73447;53.262;10.424;2023-12-20T09:45:02;100502.09;;;4.67;89.98
83514;BME280;73447;53.262;10.424;2023-12-20T09:47:28;100499.22;;;4.62;90.06
83514;BME280;73447;53.262;10.424;2023-12-20T09:49:54;100519.41;;;4.58;90.04
83514;BME280;73447;53.262;10.424;2023-12-20T09:52:21;100523.25;;;4.75;90.02
83514;BME280;73447;53.262;10.424;2023-12-20T09:54:49;100531.34;;;4.49;90.26
83514;BME280;73447;53.262;10.424;2023-12-20T09:57:16;100512.44;;;4.43;91.13
83514;BME280;73447;53.262;10.424;2023-12-20T09:59:42;100525.16;;;4.61;90.50
83514;BME280;73447;53.262;10.424;2023-12-20T10:02:12;100561.38;;;4.51;90.90
83514;BME280;73447;53.262;10.424;2023-12-20T10:04:46;100583.19;;;4.54;91.40
83514;BME280;73447;53.262;10.424;2023-12-20T10:07:15;100530.16;;;4.18;90.11
83514;BME280;73447;53.262;10.424;2023-12-20T10:09:41;100521.06;;;3.85;90.43
83514;BME280;73447;53.262;10.424;2023-12-20T10:12:07;100534.66;;;3.77;89.93
83514;BME280;73447;53.262;10.424;2023-12-20T10:14:33;100559.72;;;3.83;90.04
83514;BME280;73447;53.262;10.424;2023-12-20T10:17:03;100543.28;;;3.86;89.18
83514;BME280;73447;53.262;10.424;2023-12-20T10:19:28;100547.00;;;4.25;89.28
83514;BME280;73447;53.262;10.424;2023-12-20T10:21:54;100544.13;;;4.06;88.67
83514;BME280;73447;53.262;10.424;2023-12-20T10:24:19;100533.44;;;4.20;88.87
83514;BME280;73447;53.262;10.424;2023-12-20T10:26:45;100524.19;;;4.29;87.62
83514;BME280;73447;53.262;10.424;2023-12-20T10:29:11;100530.53;;;4.41;87.61
83514;BME280;73447;53.262;10.424;2023-12-20T10:31:36;100529.09;;;4.39;87.43
83514;BME280;73447;53.262;10.424;2023-12-20T10:34:04;100529.06;;;4.45;87.55
83514;BME280;73447;53.262;10.424;2023-12-20T10:36:31;100529.91;;;4.53;86.24
83514;BME280;73447;53.262;10.424;2023-12-20T10:38:57;100520.22;;;4.52;87.21
83514;BME280;73447;53.262;10.424;2023-12-20T10:41:28;100517.59;;;4.32;87.08
83514;BME280;73447;53.262;10.424;2023-12-20T10:44:12;100520.66;;;4.35;86.74
83514;BME280;73447;53.262;10.424;2023-12-20T10:46:39;100535.47;;;4.38;86.32
83514;BME280;73447;53.262;10.424;2023-12-20T10:49:06;100537.94;;;4.39;86.86
83514;BME280;73447;53.262;10.424;2023-12-20T10:51:33;100538.94;;;4.52;87.15
83514;BME280;73447;53.262;10.424;2023-12-20T10:54:00;100537.50;;;4.56;86.17
83514;BME280;73447;53.262;10.424;2023-12-20T10:56:28;100534.59;;;4.64;85.36
83514;BME280;73447;53.262;10.424;2023-12-20T10:58:56;100531.31;;;4.62;85.45
83514;BME280;73447;53.262;10.424;2023-12-20T11:01:22;100533.78;;;4.57;84.83
83514;BME280;73447;53.262;10.424;2023-12-20T11:03:51;100520.03;;;4.46;85.21
83514;BME280;73447;53.262;10.424;2023-12-20T11:06:27;100523.91;;;4.51;85.71
83514;BME280;73447;53.262;10.424;2023-12-20T11:09:03;100518.16;;;4.54;85.82
83514;BME280;73447;53.262;10.424;2023-12-20T11:11:42;100526.00;;;4.35;85.57
83514;BME280;73447;53.262;10.424;2023-12-20T11:14:29;100520.66;;;4.28;85.49
83514;BME280;73447;53.262;10.424;2023-12-20T11:17:10;100515.31;;;4.42;85.88
83514;BME280;73447;53.262;10.424;2023-12-20T11:22:30;100502.94;;;4.61;84.84
83514;BME280;73447;53.262;10.424;2023-12-20T11:25:04;100495.16;;;4.53;85.71
83514;BME280;73447;53.262;10.424;2023-12-20T11:27:30;100513.19;;;4.64;84.68
83514;BME280;73447;53.262;10.424;2023-12-20T11:29:58;100516.50;;;4.66;84.77
83514;BME280;73447;53.262;10.424;2023-12-20T11:35:20;100497.16;;;4.64;84.05
83514;BME280;73447;53.262;10.424;2023-12-20T11:37:46;100505.81;;;4.66;84.76
83514;BME280;73447;53.262;10.424;2023-12-20T11:40:16;100502.53;;;4.51;84.21
83514;BME280;73447;53.262;10.424;2023-12-20T11:42:46;100512.81;;;4.54;84.33
83514;BME280;73447;53.262;10.424;2023-12-20T11:45:15;100511.91;;;4.87;83.50
83514;BME280;73447;53.262;10.424;2023-12-20T11:47:46;100503.28;;;4.85;82.15
83514;BME280;73447;53.262;10.424;2023-12-20T11:50:11;100517.72;;;4.70;83.87
83514;BME280;73447;53.262;10.424;2023-12-20T11:52:37;100510.16;;;4.47;83.98
83514;BME280;73447;53.262;10.424;2023-12-20T11:55:03;100503.97;;;4.60;84.33
83514;BME280;73447;53.262;10.424;2023-12-20T11:57:29;100505.81;;;4.59;82.55
83514;BME280;73447;53.262;10.424;2023-12-20T11:59:55;100508.69;;;4.71;83.15
83514;BME280;73447;53.262;10.424;2023-12-20T12:02:21;100494.44;;;4.77;83.78
83514;BME280;73447;53.262;10.424;2023-12-20T12:04:48;100494.66;;;4.76;83.22
83514;BME280;73447;53.262;10.424;2023-12-20T12:07:14;100499.13;;;4.89;82.95
83514;BME280;73447;53.262;10.424;2023-12-20T12:09:39;100501.59;;;4.97;82.35
83514;BME280;73447;53.262;10.424;2023-12-20T12:12:05;100513.13;;;4.91;82.24
83514;BME280;73447;53.262;10.424;2023-12-20T12:14:30;100500.41;;;4.79;82.29
83514;BME280;73447;53.262;10.424;2023-12-20T12:16:56;100499.28;;;5.07;81.54
83514;BME280;73447;53.262;10.424;2023-12-20T12:19:26;100509.75;;;5.09;81.52
83514;BME280;73447;53.262;10.424;2023-12-20T12:22:04;100503.13;;;5.25;82.01
83514;BME280;73447;53.262;10.424;2023-12-20T12:24:32;100493.50;;;5.10;81.62
83514;BME280;73447;53.262;10.424;2023-12-20T12:26:57;100492.47;;;5.11;81.69
83514;BME280;73447;53.262;10.424;2023-12-20T12:29:23;100486.59;;;5.28;80.09
83514;BME280;73447;53.262;10.424;2023-12-20T12:31:50;100483.38;;;5.12;82.11
83514;BME280;73447;53.262;10.424;2023-12-20T12:34:16;100473.50;;;5.19;82.15
83514;BME280;73447;53.262;10.424;2023-12-20T12:36:43;100479.59;;;5.33;81.81
83514;BME280;73447;53.262;10.424;2023-12-20T12:39:08;100485.94;;;4.94;82.33
83514;BME280;73447;53.262;10.424;2023-12-20T12:41:33;100477.88;;;5.00;81.91
83514;BME280;73447;53.262;10.424;2023-12-20T12:43:59;100476.69;;;4.96;81.99
83514;BME280;73447;53.262;10.424;2023-12-20T12:46:24;100484.97;;;4.81;82.89
83514;BME280;73447;53.262;10.424;2023-12-20T12:48:50;100481.06;;;4.77;81.61
83514;BME280;73447;53.262;10.424;2023-12-20T12:51:15;100483.75;;;4.77;81.84
83514;BME280;73447;53.262;10.424;2023-12-20T12:53:41;100476.75;;;4.76;82.82